sensor_id;sensor_type;location;lat;lon;timestamp;P1;durP1;ratioP1;P2;durP2;ratioP2
14599;SDS011;7386;45.586;12.854;2024-02-21T00:00:41;29.13;;;22.07;;
14599;SDS011;7386;45.586;12.854;2024-02-21T00:03:10;29.93;;;22.03;;
14599;SDS011;7386;45.586;12.854;2024-02-21T00:05:38;27.93;;;21.57;;
14599;SDS011;7386;45.586;12.854;2024-02-21T00:08:07;25.30;;;20.97;;
14599;SDS011;7386;45.586;12.854;2024-02-21T00:10:36;28.17;;;21.37;;
14599;SDS011;7386;45.586;12.854;2024-02-21T00:13:05;24.50;;;19.77;;
14599;SDS011;7386;45.586;12.854;2024-02-21T00:15:33;26.97;;;20.63;;
14599;SDS011;7386;45.586;12.854;2024-02-21T00:18:02;26.17;;;20.37;;
14599;SDS011;7386;45.586;12.854;2024-02-21T00:20:31;24.90;;;19.87;;
14599;SDS011;7386;45.586;12.854;2024-02-21T00:22:59;27.30;;;21.13;;
14599;SDS011;7386;45.586;12.854;2024-02-21T00:25:27;26.40;;;20.60;;
14599;SDS011;7386;45.586;12.854;2024-02-21T00:27:57;29.13;;;22.40;;
14599;SDS011;7386;45.586;12.854;2024-02-21T00:30:26;27.60;;;22.07;;
14599;SDS011;7386;45.586;12.854;2024-02-21T00:32:54;28.23;;;22.67;;
14599;SDS011;7386;45.586;12.854;2024-02-21T00:35:23;29.43;;;22.17;;
14599;SDS011;7386;45.586;12.854;2024-02-21T00:37:51;30.07;;;22.50;;
14599;SDS011;7386;45.586;12.854;2024-02-21T00:40:20;31.37;;;23.07;;
14599;SDS011;7386;45.586;12.854;2024-02-21T00:42:49;30.77;;;22.63;;
14599;SDS011;7386;45.586;12.854;2024-02-21T00:45:19;31.07;;;22.57;;
14599;SDS011;7386;45.586;12.854;2024-02-21T00:47:47;28.77;;;23.20;;
14599;SDS011;7386;45.586;12.854;2024-02-21T00:50:16;29.67;;;22.67;;
14599;SDS011;7386;45.586;12.854;2024-02-21T00:52:44;29.77;;;23.53;;
14599;SDS011;7386;45.586;12.854;2024-02-21T00:55:13;30.30;;;23.80;;
14599;SDS011;7386;45.586;12.854;2024-02-21T00:57:42;31.23;;;25.37;;
14599;SDS011;7386;45.586;12.854;2024-02-21T01:00:11;34.30;;;25.50;;
14599;SDS011;7386;45.586;12.854;2024-02-21T01:02:41;31.43;;;24.00;;
14599;SDS011;7386;45.586;12.854;2024-02-21T01:05:09;29.93;;;22.90;;
14599;SDS011;7386;45.586;12.854;2024-02-21T01:07:38;29.53;;;23.73;;
14599;SDS011;7386;45.586;12.854;2024-02-21T01:10:07;31.57;;;24.37;;
14599;SDS011;7386;45.586;12.854;2024-02-21T01:12:36;30.47;;;23.97;;
14599;SDS011;7386;45.586;12.854;2024-02-21T01:15:04;31.17;;;23.07;;
14599;SDS011;7386;45.586;12.854;2024-02-21T01:17:33;29.53;;;23.30;;
14599;SDS011;7386;45.586;12.854;2024-02-21T01:20:02;30.87;;;23.90;;
14599;SDS011;7386;45.586;12.854;2024-02-21T01:22:32;32.17;;;23.50;;
14599;SDS011;7386;45.586;12.854;2024-02-21T01:25:00;31.13;;;23.57;;
14599;SDS011;7386;45.586;12.854;2024-02-21T01:27:29;30.80;;;24.67;;
14599;SDS011;7386;45.586;12.854;2024-02-21T01:29:57;31.87;;;24.47;;
14599;SDS011;7386;45.586;12.854;2024-02-21T01:32:25;31.77;;;24.93;;
14599;SDS011;7386;45.586;12.854;2024-02-21T01:34:54;30.53;;;24.77;;
14599;SDS011;7386;45.586;12.854;2024-02-21T01:37:24;34.77;;;26.20;;
14599;SDS011;7386;45.586;12.854;2024-02-21T01:39:52;30.63;;;24.27;;
14599;SDS011;7386;45.586;12.854;2024-02-21T01:42:21;30.77;;;24.50;;
14599;SDS011;7386;45.586;12.854;2024-02-21T01:44:49;31.17;;;24.87;;
14599;SDS011;7386;45.586;12.854;2024-02-21T01:47:18;30.43;;;24.07;;
14599;SDS011;7386;45.586;12.854;2024-02-21T01:49:46;29.57;;;23.37;;
14599;SDS011;7386;45.586;12.854;2024-02-21T01:52:15;32.93;;;23.87;;
14599;SDS011;7386;45.586;12.854;2024-02-21T01:54:46;28.73;;;22.87;;
14599;SDS011;7386;45.586;12.854;2024-02-21T01:57:14;30.50;;;22.53;;
14599;SDS011;7386;45.586;12.854;2024-02-21T01:59:43;29.17;;;21.87;;
14599;SDS011;7386;45.586;12.854;2024-02-21T02:02:12;26.80;;;20.93;;
14599;SDS011;7386;45.586;12.854;2024-02-21T02:04:42;29.47;;;22.47;;
14599;SDS011;7386;45.586;12.854;2024-02-21T02:07:12;25.17;;;21.40;;
14599;SDS011;7386;45.586;12.854;2024-02-21T02:09:40;27.90;;;21.10;;
14599;SDS011;7386;45.586;12.854;2024-02-21T02:12:11;26.53;;;21.50;;
14599;SDS011;7386;45.586;12.854;2024-02-21T02:14:39;26.23;;;21.00;;
14599;SDS011;7386;45.586;12.854;2024-02-21T02:17:08;24.63;;;19.80;;
14599;SDS011;7386;45.586;12.854;2024-02-21T02:19:36;25.40;;;20.47;;
14599;SDS011;7386;45.586;12.854;2024-02-21T02:22:07;24.63;;;19.10;;
14599;SDS011;7386;45.586;12.854;2024-02-21T02:24:39;25.07;;;20.17;;
14599;SDS011;7386;45.586;12.854;2024-02-21T02:27:07;24.50;;;18.93;;
14599;SDS011;7386;45.586;12.854;2024-02-21T02:29:36;22.97;;;18.83;;
14599;SDS011;7386;45.586;12.854;2024-02-21T02:32:04;24.17;;;18.30;;
14599;SDS011;7386;45.586;12.854;2024-02-21T02:34:33;24.23;;;17.67;;
14599;SDS011;7386;45.586;12.854;2024-02-21T02:37:01;21.97;;;17.60;;
14599;SDS011;7386;45.586;12.854;2024-02-21T02:39:30;21.97;;;17.70;;
14599;SDS011;7386;45.586;12.854;2024-02-21T02:42:00;22.57;;;17.33;;
14599;SDS011;7386;45.586;12.854;2024-02-21T02:44:28;22.43;;;17.40;;
14599;SDS011;7386;45.586;12.854;2024-02-21T02:46:56;21.13;;;17.73;;
14599;SDS011;7386;45.586;12.854;2024-02-21T02:49:25;21.23;;;16.93;;
14599;SDS011;7386;45.586;12.854;2024-02-21T02:51:53;21.80;;;16.97;;
14599;SDS011;7386;45.586;12.854;2024-02-21T02:54:22;21.60;;;16.23;;
14599;SDS011;7386;45.586;12.854;2024-02-21T02:56:50;20.03;;;15.83;;
14599;SDS011;7386;45.586;12.854;2024-02-21T02:59:20;18.83;;;15.30;;
14599;SDS011;7386;45.586;12.854;2024-02-21T03:01:48;22.77;;;16.00;;
14599;SDS011;7386;45.586;12.854;2024-02-21T03:04:17;17.37;;;14.87;;
14599;SDS011;7386;45.586;12.854;2024-02-21T03:06:45;18.70;;;13.90;;
14599;SDS011;7386;45.586;12.854;2024-02-21T03:09:14;20.20;;;15.27;;
14599;SDS011;7386;45.586;12.854;2024-02-21T03:11:44;19.10;;;14.70;;
14599;SDS011;7386;45.586;12.854;2024-02-21T03:14:12;18.03;;;13.70;;
14599;SDS011;7386;45.586;12.854;2024-02-21T03:16:42;15.83;;;13.47;;
14599;SDS011;7386;45.586;12.854;2024-02-21T03:19:10;16.63;;;13.00;;
14599;SDS011;7386;45.586;12.854;2024-02-21T03:21:39;15.93;;;12.90;;
14599;SDS011;7386;45.586;12.854;2024-02-21T03:24:07;18.97;;;13.17;;
14599;SDS011;7386;45.586;12.854;2024-02-21T03:26:36;15.70;;;12.10;;
14599;SDS011;7386;45.586;12.854;2024-02-21T03:29:04;15.30;;;12.03;;
14599;SDS011;7386;45.586;12.854;2024-02-21T03:31:33;16.00;;;12.53;;
14599;SDS011;7386;45.586;12.854;2024-02-21T03:34:03;15.63;;;12.33;;
14599;SDS011;7386;45.586;12.854;2024-02-21T03:36:31;16.37;;;11.60;;
14599;SDS011;7386;45.586;12.854;2024-02-21T03:39:00;14.17;;;11.30;;
14599;SDS011;7386;45.586;12.854;2024-02-21T03:41:28;15.33;;;11.37;;
14599;SDS011;7386;45.586;12.854;2024-02-21T03:43:57;15.63;;;12.03;;
14599;SDS011;7386;45.586;12.854;2024-02-21T03:46:25;15.10;;;10.77;;
14599;SDS011;7386;45.586;12.854;2024-02-21T03:48:54;15.07;;;11.03;;
14599;SDS011;7386;45.586;12.854;2024-02-21T03:51:24;14.27;;;11.00;;
14599;SDS011;7386;45.586;12.854;2024-02-21T03:53:52;13.67;;;10.67;;
14599;SDS011;7386;45.586;12.854;2024-02-21T03:56:21;13.53;;;9.63;;
14599;SDS011;7386;45.586;12.854;2024-02-21T03:58:49;13.17;;;10.93;;
14599;SDS011;7386;45.586;12.854;2024-02-21T04:01:18;13.47;;;10.00;;
14599;SDS011;7386;45.586;12.854;2024-02-21T04:03:46;13.47;;;10.17;;
14599;SDS011;7386;45.586;12.854;2024-02-21T04:06:15;12.10;;;9.97;;
14599;SDS011;7386;45.586;12.854;2024-02-21T04:08:45;12.80;;;9.83;;
14599;SDS011;7386;45.586;12.854;2024-02-21T04:11:13;12.43;;;9.90;;
14599;SDS011;7386;45.586;12.854;2024-02-21T04:13:42;12.33;;;9.53;;
14599;SDS011;7386;45.586;12.854;2024-02-21T04:16:10;11.67;;;9.57;;
14599;SDS011;7386;45.586;12.854;2024-02-21T04:18:39;12.83;;;9.40;;
14599;SDS011;7386;45.586;12.854;2024-02-21T04:21:08;11.10;;;9.30;;
14599;SDS011;7386;45.586;12.854;2024-02-21T04:23:39;12.13;;;9.20;;
14599;SDS011;7386;45.586;12.854;2024-02-21T04:26:09;11.17;;;8.53;;
14599;SDS011;7386;45.586;12.854;2024-02-21T04:28:37;10.87;;;8.73;;
14599;SDS011;7386;45.586;12.854;2024-02-21T04:31:06;12.10;;;9.23;;
14599;SDS011;7386;45.586;12.854;2024-02-21T04:33:34;10.67;;;8.37;;
14599;SDS011;7386;45.586;12.854;2024-02-21T04:36:03;12.03;;;8.70;;
14599;SDS011;7386;45.586;12.854;2024-02-21T04:38:31;11.37;;;8.37;;
14599;SDS011;7386;45.586;12.854;2024-02-21T04:41:00;10.37;;;8.33;;
14599;SDS011;7386;45.586;12.854;2024-02-21T04:43:30;10.93;;;8.37;;
14599;SDS011;7386;45.586;12.854;2024-02-21T04:45:59;10.50;;;8.00;;
14599;SDS011;7386;45.586;12.854;2024-02-21T04:48:28;11.47;;;8.07;;
14599;SDS011;7386;45.586;12.854;2024-02-21T04:50:56;11.17;;;8.50;;
14599;SDS011;7386;45.586;12.854;2024-02-21T04:53:24;11.07;;;8.00;;
14599;SDS011;7386;45.586;12.854;2024-02-21T04:55:54;12.33;;;7.77;;
14599;SDS011;7386;45.586;12.854;2024-02-21T04:58:22;10.33;;;8.03;;
14599;SDS011;7386;45.586;12.854;2024-02-21T05:00:53;11.23;;;7.43;;
14599;SDS011;7386;45.586;12.854;2024-02-21T05:03:22;9.73;;;7.50;;
14599;SDS011;7386;45.586;12.854;2024-02-21T05:05:50;9.33;;;7.30;;
14599;SDS011;7386;45.586;12.854;2024-02-21T05:08:19;9.40;;;7.47;;
14599;SDS011;7386;45.586;12.854;2024-02-21T05:10:47;9.10;;;7.47;;
14599;SDS011;7386;45.586;12.854;2024-02-21T05:13:16;9.83;;;7.33;;
14599;SDS011;7386;45.586;12.854;2024-02-21T05:15:44;10.07;;;7.57;;
14599;SDS011;7386;45.586;12.854;2024-02-21T05:18:14;9.73;;;7.33;;
14599;SDS011;7386;45.586;12.854;2024-02-21T05:20:43;8.97;;;7.23;;
14599;SDS011;7386;45.586;12.854;2024-02-21T05:23:11;11.27;;;7.30;;
14599;SDS011;7386;45.586;12.854;2024-02-21T05:25:39;9.10;;;6.90;;
14599;SDS011;7386;45.586;12.854;2024-02-21T05:28:08;8.70;;;7.27;;
14599;SDS011;7386;45.586;12.854;2024-02-21T05:30:36;8.70;;;6.53;;
14599;SDS011;7386;45.586;12.854;2024-02-21T05:33:05;9.23;;;6.47;;
14599;SDS011;7386;45.586;12.854;2024-02-21T05:35:35;10.40;;;6.00;;
14599;SDS011;7386;45.586;12.854;2024-02-21T05:38:04;7.70;;;5.83;;
14599;SDS011;7386;45.586;12.854;2024-02-21T05:40:38;7.33;;;5.60;;
14599;SDS011;7386;45.586;12.854;2024-02-21T05:43:06;7.40;;;5.80;;
14599;SDS011;7386;45.586;12.854;2024-02-21T05:45:35;9.07;;;6.03;;
14599;SDS011;7386;45.586;12.854;2024-02-21T05:48:04;7.23;;;5.60;;
14599;SDS011;7386;45.586;12.854;2024-02-21T05:50:32;6.80;;;5.43;;
14599;SDS011;7386;45.586;12.854;2024-02-21T05:53:02;6.60;;;5.10;;
14599;SDS011;7386;45.586;12.854;2024-02-21T05:55:31;6.67;;;5.03;;
14599;SDS011;7386;45.586;12.854;2024-02-21T05:57:59;6.33;;;5.07;;
14599;SDS011;7386;45.586;12.854;2024-02-21T06:00:28;5.80;;;5.00;;
14599;SDS011;7386;45.586;12.854;2024-02-21T06:02:57;7.67;;;5.10;;
14599;SDS011;7386;45.586;12.854;2024-02-21T06:05:25;5.97;;;4.60;;
14599;SDS011;7386;45.586;12.854;2024-02-21T06:07:54;6.17;;;4.47;;
14599;SDS011;7386;45.586;12.854;2024-02-21T06:10:24;6.23;;;4.67;;
14599;SDS011;7386;45.586;12.854;2024-02-21T06:12:52;6.10;;;4.50;;
14599;SDS011;7386;45.586;12.854;2024-02-21T06:15:21;6.10;;;4.67;;
14599;SDS011;7386;45.586;12.854;2024-02-21T06:17:49;6.43;;;4.20;;
14599;SDS011;7386;45.586;12.854;2024-02-21T06:20:18;6.87;;;4.30;;
14599;SDS011;7386;45.586;12.854;2024-02-21T06:22:46;6.07;;;4.77;;
14599;SDS011;7386;45.586;12.854;2024-02-21T06:25:15;5.67;;;4.00;;
14599;SDS011;7386;45.586;12.854;2024-02-21T06:27:45;5.13;;;4.13;;
14599;SDS011;7386;45.586;12.854;2024-02-21T06:30:13;5.40;;;3.93;;
14599;SDS011;7386;45.586;12.854;2024-02-21T06:32:42;5.50;;;4.00;;
14599;SDS011;7386;45.586;12.854;2024-02-21T06:35:10;8.60;;;3.87;;
14599;SDS011;7386;45.586;12.854;2024-02-21T06:37:39;5.63;;;4.37;;
14599;SDS011;7386;45.586;12.854;2024-02-21T06:40:07;4.97;;;4.00;;
14599;SDS011;7386;45.586;12.854;2024-02-21T06:42:36;7.03;;;3.63;;
14599;SDS011;7386;45.586;12.854;2024-02-21T06:45:06;5.07;;;3.80;;
14599;SDS011;7386;45.586;12.854;2024-02-21T06:47:35;6.00;;;3.80;;
14599;SDS011;7386;45.586;12.854;2024-02-21T06:50:03;5.77;;;4.27;;
14599;SDS011;7386;45.586;12.854;2024-02-21T06:52:32;5.23;;;3.90;;
14599;SDS011;7386;45.586;12.854;2024-02-21T06:55:01;4.53;;;3.77;;
14599;SDS011;7386;45.586;12.854;2024-02-21T06:57:29;4.37;;;3.77;;
14599;SDS011;7386;45.586;12.854;2024-02-21T06:59:58;4.40;;;3.63;;
14599;SDS011;7386;45.586;12.854;2024-02-21T07:02:27;5.07;;;3.50;;
14599;SDS011;7386;45.586;12.854;2024-02-21T07:04:56;5.07;;;3.47;;
14599;SDS011;7386;45.586;12.854;2024-02-21T07:07:25;4.60;;;3.70;;
14599;SDS011;7386;45.586;12.854;2024-02-21T07:09:53;6.30;;;3.70;;
14599;SDS011;7386;45.586;12.854;2024-02-21T07:12:22;4.27;;;3.57;;
14599;SDS011;7386;45.586;12.854;2024-02-21T07:14:50;5.37;;;3.77;;
14599;SDS011;7386;45.586;12.854;2024-02-21T07:17:18;5.17;;;3.70;;
14599;SDS011;7386;45.586;12.854;2024-02-21T07:19:48;5.70;;;3.90;;
14599;SDS011;7386;45.586;12.854;2024-02-21T07:22:17;7.30;;;3.80;;
14599;SDS011;7386;45.586;12.854;2024-02-21T07:24:45;4.70;;;3.73;;
14599;SDS011;7386;45.586;12.854;2024-02-21T07:27:14;4.80;;;3.60;;
14599;SDS011;7386;45.586;12.854;2024-02-21T07:29:43;5.77;;;3.80;;
14599;SDS011;7386;45.586;12.854;2024-02-21T07:32:14;5.97;;;4.10;;
14599;SDS011;7386;45.586;12.854;2024-02-21T07:34:42;5.67;;;4.10;;
14599;SDS011;7386;45.586;12.854;2024-02-21T07:37:12;6.20;;;3.93;;
14599;SDS011;7386;45.586;12.854;2024-02-21T07:39:41;7.60;;;3.93;;
14599;SDS011;7386;45.586;12.854;2024-02-21T07:42:09;4.83;;;3.90;;
14599;SDS011;7386;45.586;12.854;2024-02-21T07:44:38;5.13;;;4.07;;
14599;SDS011;7386;45.586;12.854;2024-02-21T07:47:06;5.03;;;3.90;;
14599;SDS011;7386;45.586;12.854;2024-02-21T07:49:40;4.80;;;3.70;;
14599;SDS011;7386;45.586;12.854;2024-02-21T07:52:09;6.03;;;4.20;;
14599;SDS011;7386;45.586;12.854;2024-02-21T07:54:39;5.13;;;4.07;;
14599;SDS011;7386;45.586;12.854;2024-02-21T07:57:08;4.50;;;3.63;;
14599;SDS011;7386;45.586;12.854;2024-02-21T07:59:36;4.87;;;3.80;;
14599;SDS011;7386;45.586;12.854;2024-02-21T08:02:05;5.77;;;4.23;;
14599;SDS011;7386;45.586;12.854;2024-02-21T08:04:34;5.80;;;4.30;;
14599;SDS011;7386;45.586;12.854;2024-02-21T08:07:02;7.53;;;4.30;;
14599;SDS011;7386;45.586;12.854;2024-02-21T08:09:31;5.87;;;4.00;;
14599;SDS011;7386;45.586;12.854;2024-02-21T08:12:01;4.10;;;3.53;;
14599;SDS011;7386;45.586;12.854;2024-02-21T08:14:29;5.40;;;3.90;;
14599;SDS011;7386;45.586;12.854;2024-02-21T08:16:58;6.90;;;4.10;;
14599;SDS011;7386;45.586;12.854;2024-02-21T08:19:26;6.47;;;4.20;;
14599;SDS011;7386;45.586;12.854;2024-02-21T08:21:55;6.27;;;4.27;;
14599;SDS011;7386;45.586;12.854;2024-02-21T08:24:23;5.40;;;3.67;;
14599;SDS011;7386;45.586;12.854;2024-02-21T08:26:52;5.47;;;3.33;;
14599;SDS011;7386;45.586;12.854;2024-02-21T08:29:22;5.00;;;3.57;;
14599;SDS011;7386;45.586;12.854;2024-02-21T08:31:51;4.73;;;3.60;;
14599;SDS011;7386;45.586;12.854;2024-02-21T08:34:19;5.27;;;4.03;;
14599;SDS011;7386;45.586;12.854;2024-02-21T08:36:49;7.20;;;5.00;;
14599;SDS011;7386;45.586;12.854;2024-02-21T08:39:17;7.35;;;4.80;;
14599;SDS011;7386;45.586;12.854;2024-02-21T08:41:45;7.33;;;4.90;;
14599;SDS011;7386;45.586;12.854;2024-02-21T08:44:24;7.17;;;4.33;;
14599;SDS011;7386;45.586;12.854;2024-02-21T08:46:54;6.13;;;4.37;;
14599;SDS011;7386;45.586;12.854;2024-02-21T08:49:23;6.30;;;4.40;;
14599;SDS011;7386;45.586;12.854;2024-02-21T08:52:00;9.57;;;5.77;;
14599;SDS011;7386;45.586;12.854;2024-02-21T08:54:29;10.27;;;5.27;;
14599;SDS011;7386;45.586;12.854;2024-02-21T08:56:57;8.30;;;5.30;;
14599;SDS011;7386;45.586;12.854;2024-02-21T08:59:27;6.20;;;4.77;;
14599;SDS011;7386;45.586;12.854;2024-02-21T09:01:56;12.17;;;7.37;;
14599;SDS011;7386;45.586;12.854;2024-02-21T09:04:24;10.30;;;6.60;;
14599;SDS011;7386;45.586;12.854;2024-02-21T09:06:53;8.43;;;5.77;;
14599;SDS011;7386;45.586;12.854;2024-02-21T09:09:21;8.30;;;5.40;;
14599;SDS011;7386;45.586;12.854;2024-02-21T09:11:54;10.87;;;7.43;;
14599;SDS011;7386;45.586;12.854;2024-02-21T09:14:24;12.00;;;6.73;;
14599;SDS011;7386;45.586;12.854;2024-02-21T09:16:53;11.03;;;6.20;;
14599;SDS011;7386;45.586;12.854;2024-02-21T09:19:22;9.07;;;5.33;;
14599;SDS011;7386;45.586;12.854;2024-02-21T09:21:51;12.03;;;8.33;;
14599;SDS011;7386;45.586;12.854;2024-02-21T09:24:19;15.23;;;8.70;;
14599;SDS011;7386;45.586;12.854;2024-02-21T09:26:48;9.93;;;6.43;;
14599;SDS011;7386;45.586;12.854;2024-02-21T09:29:17;7.70;;;5.77;;
14599;SDS011;7386;45.586;12.854;2024-02-21T09:31:49;14.67;;;9.90;;
14599;SDS011;7386;45.586;12.854;2024-02-21T09:34:20;12.53;;;8.43;;
14599;SDS011;7386;45.586;12.854;2024-02-21T09:36:49;11.17;;;7.50;;
14599;SDS011;7386;45.586;12.854;2024-02-21T09:39:17;10.73;;;6.80;;
14599;SDS011;7386;45.586;12.854;2024-02-21T09:41:49;16.10;;;10.27;;
14599;SDS011;7386;45.586;12.854;2024-02-21T09:44:22;16.17;;;9.83;;
14599;SDS011;7386;45.586;12.854;2024-02-21T09:46:52;10.87;;;7.87;;
14599;SDS011;7386;45.586;12.854;2024-02-21T09:49:24;11.00;;;8.07;;
14599;SDS011;7386;45.586;12.854;2024-02-21T09:51:55;17.07;;;11.60;;
14599;SDS011;7386;45.586;12.854;2024-02-21T09:54:25;17.77;;;11.77;;
14599;SDS011;7386;45.586;12.854;2024-02-21T09:56:57;17.63;;;10.10;;
14599;SDS011;7386;45.586;12.854;2024-02-21T09:59:26;14.43;;;9.33;;
14599;SDS011;7386;45.586;12.854;2024-02-21T10:01:55;21.03;;;14.10;;
14599;SDS011;7386;45.586;12.854;2024-02-21T10:04:27;16.57;;;11.97;;
14599;SDS011;7386;45.586;12.854;2024-02-21T10:06:57;14.73;;;8.70;;
14599;SDS011;7386;45.586;12.854;2024-02-21T10:09:25;12.13;;;8.40;;
14599;SDS011;7386;45.586;12.854;2024-02-21T10:11:56;20.13;;;12.50;;
14599;SDS011;7386;45.586;12.854;2024-02-21T10:14:24;15.77;;;11.30;;
14599;SDS011;7386;45.586;12.854;2024-02-21T10:16:56;12.60;;;8.93;;
14599;SDS011;7386;45.586;12.854;2024-02-21T10:19:25;11.97;;;7.13;;
14599;SDS011;7386;45.586;12.854;2024-02-21T10:22:02;19.90;;;11.97;;
14599;SDS011;7386;45.586;12.854;2024-02-21T10:24:31;18.00;;;10.70;;
14599;SDS011;7386;45.586;12.854;2024-02-21T10:27:01;13.53;;;9.17;;
14599;SDS011;7386;45.586;12.854;2024-02-21T10:29:30;9.83;;;7.67;;
14599;SDS011;7386;45.586;12.854;2024-02-21T10:32:05;18.20;;;12.97;;
14599;SDS011;7386;45.586;12.854;2024-02-21T10:34:34;18.43;;;10.80;;
14599;SDS011;7386;45.586;12.854;2024-02-21T10:37:05;12.70;;;8.37;;
14599;SDS011;7386;45.586;12.854;2024-02-21T10:39:34;18.77;;;11.90;;
14599;SDS011;7386;45.586;12.854;2024-02-21T10:42:03;39.93;;;26.00;;
14599;SDS011;7386;45.586;12.854;2024-02-21T10:44:32;27.57;;;18.60;;
14599;SDS011;7386;45.586;12.854;2024-02-21T10:47:01;21.47;;;13.40;;
14599;SDS011;7386;45.586;12.854;2024-02-21T10:49:32;25.07;;;17.13;;
14599;SDS011;7386;45.586;12.854;2024-02-21T10:52:06;44.83;;;28.77;;
14599;SDS011;7386;45.586;12.854;2024-02-21T10:54:44;29.73;;;19.80;;
14599;SDS011;7386;45.586;12.854;2024-02-21T10:57:14;22.73;;;14.77;;
14599;SDS011;7386;45.586;12.854;2024-02-21T10:59:44;31.73;;;21.73;;
14599;SDS011;7386;45.586;12.854;2024-02-21T11:02:12;47.77;;;29.47;;
14599;SDS011;7386;45.586;12.854;2024-02-21T11:04:41;35.00;;;20.07;;
14599;SDS011;7386;45.586;12.854;2024-02-21T11:07:11;23.60;;;14.33;;
14599;SDS011;7386;45.586;12.854;2024-02-21T11:09:40;36.60;;;21.73;;
14599;SDS011;7386;45.586;12.854;2024-02-21T11:12:09;48.70;;;28.33;;
14599;SDS011;7386;45.586;12.854;2024-02-21T11:14:38;37.07;;;19.97;;
14599;SDS011;7386;45.586;12.854;2024-02-21T11:17:14;20.47;;;12.83;;
14599;SDS011;7386;45.586;12.854;2024-02-21T11:19:43;35.67;;;22.67;;
14599;SDS011;7386;45.586;12.854;2024-02-21T11:22:17;37.40;;;23.63;;
14599;SDS011;7386;45.586;12.854;2024-02-21T11:24:46;33.60;;;19.10;;
14599;SDS011;7386;45.586;12.854;2024-02-21T11:27:15;20.60;;;12.40;;
14599;SDS011;7386;45.586;12.854;2024-02-21T11:29:44;37.57;;;23.40;;
14599;SDS011;7386;45.586;12.854;2024-02-21T11:32:14;34.03;;;21.53;;
14599;SDS011;7386;45.586;12.854;2024-02-21T11:34:52;26.70;;;17.13;;
14599;SDS011;7386;45.586;12.854;2024-02-21T11:37:23;21.77;;;12.67;;
14599;SDS011;7386;45.586;12.854;2024-02-21T11:39:53;32.00;;;22.33;;
14599;SDS011;7386;45.586;12.854;2024-02-21T11:42:21;36.47;;;23.30;;
14599;SDS011;7386;45.586;12.854;2024-02-21T11:44:50;29.03;;;18.40;;
14599;SDS011;7386;45.586;12.854;2024-02-21T11:47:19;21.50;;;13.37;;
14599;SDS011;7386;45.586;12.854;2024-02-21T11:49:48;41.03;;;25.77;;
14599;SDS011;7386;45.586;12.854;2024-02-21T11:52:22;35.60;;;23.67;;
14599;SDS011;7386;45.586;12.854;2024-02-21T11:54:53;27.00;;;17.77;;
14599;SDS011;7386;45.586;12.854;2024-02-21T11:57:24;33.10;;;21.63;;
14599;SDS011;7386;45.586;12.854;2024-02-21T11:59:52;47.80;;;30.40;;
14599;SDS011;7386;45.586;12.854;2024-02-21T12:02:25;40.53;;;25.57;;
14599;SDS011;7386;45.586;12.854;2024-02-21T12:04:55;27.43;;;18.27;;
14599;SDS011;7386;45.586;12.854;2024-02-21T12:07:25;39.07;;;25.47;;
14599;SDS011;7386;45.586;12.854;2024-02-21T12:09:58;48.67;;;29.23;;
14599;SDS011;7386;45.586;12.854;2024-02-21T12:12:27;35.50;;;22.03;;
14599;SDS011;7386;45.586;12.854;2024-02-21T12:14:56;24.17;;;16.60;;
14599;SDS011;7386;45.586;12.854;2024-02-21T12:17:25;37.23;;;25.27;;
14599;SDS011;7386;45.586;12.854;2024-02-21T12:19:54;38.43;;;24.17;;
14599;SDS011;7386;45.586;12.854;2024-02-21T12:22:22;30.80;;;20.10;;
14599;SDS011;7386;45.586;12.854;2024-02-21T12:24:55;30.50;;;19.50;;
14599;SDS011;7386;45.586;12.854;2024-02-21T12:27:23;46.83;;;29.27;;
14599;SDS011;7386;45.586;12.854;2024-02-21T12:29:52;45.93;;;28.00;;
14599;SDS011;7386;45.586;12.854;2024-02-21T12:32:21;36.33;;;20.37;;
14599;SDS011;7386;45.586;12.854;2024-02-21T12:34:49;40.53;;;25.33;;
14599;SDS011;7386;45.586;12.854;2024-02-21T12:37:21;48.37;;;30.63;;
14599;SDS011;7386;45.586;12.854;2024-02-21T12:39:50;36.47;;;23.37;;
14599;SDS011;7386;45.586;12.854;2024-02-21T12:42:20;29.10;;;18.10;;
14599;SDS011;7386;45.586;12.854;2024-02-21T12:44:50;44.47;;;27.60;;
14599;SDS011;7386;45.586;12.854;2024-02-21T12:47:18;46.77;;;28.57;;
14599;SDS011;7386;45.586;12.854;2024-02-21T12:49:50;34.23;;;21.50;;
14599;SDS011;7386;45.586;12.854;2024-02-21T12:52:18;36.57;;;23.03;;
14599;SDS011;7386;45.586;12.854;2024-02-21T12:54:47;47.40;;;29.87;;
14599;SDS011;7386;45.586;12.854;2024-02-21T12:57:16;41.87;;;27.17;;
14599;SDS011;7386;45.586;12.854;2024-02-21T12:59:46;29.80;;;19.67;;
14599;SDS011;7386;45.586;12.854;2024-02-21T13:02:15;37.37;;;24.23;;
14599;SDS011;7386;45.586;12.854;2024-02-21T13:04:43;41.40;;;26.10;;
14599;SDS011;7386;45.586;12.854;2024-02-21T13:07:12;32.70;;;21.87;;
14599;SDS011;7386;45.586;12.854;2024-02-21T13:09:40;31.83;;;18.87;;
14599;SDS011;7386;45.586;12.854;2024-02-21T13:12:09;39.83;;;26.33;;
14599;SDS011;7386;45.586;12.854;2024-02-21T13:14:38;39.20;;;24.90;;
14599;SDS011;7386;45.586;12.854;2024-02-21T13:17:11;27.80;;;17.97;;
14599;SDS011;7386;45.586;12.854;2024-02-21T13:19:41;36.90;;;25.00;;
14599;SDS011;7386;45.586;12.854;2024-02-21T13:22:10;38.30;;;25.50;;
14599;SDS011;7386;45.586;12.854;2024-02-21T13:24:38;29.43;;;21.00;;
14599;SDS011;7386;45.586;12.854;2024-02-21T13:27:07;41.10;;;27.20;;
14599;SDS011;7386;45.586;12.854;2024-02-21T13:29:35;53.90;;;34.63;;
14599;SDS011;7386;45.586;12.854;2024-02-21T13:32:04;44.40;;;26.87;;
14599;SDS011;7386;45.586;12.854;2024-02-21T13:34:34;32.77;;;19.93;;
14599;SDS011;7386;45.586;12.854;2024-02-21T13:37:03;45.43;;;30.40;;
14599;SDS011;7386;45.586;12.854;2024-02-21T13:39:33;49.37;;;31.03;;
14599;SDS011;7386;45.586;12.854;2024-02-21T13:42:02;32.47;;;22.90;;
14599;SDS011;7386;45.586;12.854;2024-02-21T13:44:32;46.83;;;30.37;;
14599;SDS011;7386;45.586;12.854;2024-02-21T13:47:00;46.03;;;29.10;;
14599;SDS011;7386;45.586;12.854;2024-02-21T13:49:30;43.47;;;27.07;;
14599;SDS011;7386;45.586;12.854;2024-02-21T13:52:00;58.83;;;37.07;;
14599;SDS011;7386;45.586;12.854;2024-02-21T13:54:29;49.87;;;31.37;;
14599;SDS011;7386;45.586;12.854;2024-02-21T13:56:57;48.70;;;31.00;;
14599;SDS011;7386;45.586;12.854;2024-02-21T13:59:26;53.40;;;34.87;;
14599;SDS011;7386;45.586;12.854;2024-02-21T14:01:54;43.43;;;27.17;;
14599;SDS011;7386;45.586;12.854;2024-02-21T14:04:23;43.27;;;29.77;;
14599;SDS011;7386;45.586;12.854;2024-02-21T14:06:51;50.63;;;33.43;;
14599;SDS011;7386;45.586;12.854;2024-02-21T14:09:21;42.10;;;26.60;;
14599;SDS011;7386;45.586;12.854;2024-02-21T14:11:49;48.70;;;31.33;;
14599;SDS011;7386;45.586;12.854;2024-02-21T14:14:18;53.37;;;34.67;;
14599;SDS011;7386;45.586;12.854;2024-02-21T14:16:46;43.97;;;28.20;;
14599;SDS011;7386;45.586;12.854;2024-02-21T14:19:15;47.53;;;32.33;;
14599;SDS011;7386;45.586;12.854;2024-02-21T14:21:43;55.40;;;34.30;;
14599;SDS011;7386;45.586;12.854;2024-02-21T14:24:12;45.73;;;27.57;;
14599;SDS011;7386;45.586;12.854;2024-02-21T14:26:42;56.07;;;35.33;;
14599;SDS011;7386;45.586;12.854;2024-02-21T14:29:10;56.37;;;35.63;;
14599;SDS011;7386;45.586;12.854;2024-02-21T14:31:39;50.37;;;31.23;;
14599;SDS011;7386;45.586;12.854;2024-02-21T14:34:09;69.97;;;42.23;;
14599;SDS011;7386;45.586;12.854;2024-02-21T14:36:38;64.60;;;41.50;;
14599;SDS011;7386;45.586;12.854;2024-02-21T14:39:07;57.27;;;34.30;;
14599;SDS011;7386;45.586;12.854;2024-02-21T14:41:35;69.77;;;44.03;;